createdAt,value
2022-10-19T00:02:08.607Z,12.70
2022-10-19T00:05:11.678Z,13.40
2022-10-19T00:08:14.196Z,11.60
2022-10-19T00:11:16.995Z,11.88
2022-10-19T00:14:22.499Z,11.07
2022-10-19T00:17:25.439Z,11.10
2022-10-19T00:20:36.014Z,11.35
2022-10-19T00:23:39.022Z,9.98
2022-10-19T00:26:41.451Z,11.77
2022-10-19T00:29:44.333Z,8.95
2022-10-19T00:32:48.083Z,8.57
2022-10-19T00:35:52.363Z,11.65
2022-10-19T00:38:55.666Z,8.75
2022-10-19T00:41:58.848Z,9.25
2022-10-19T00:45:05.636Z,13.68
2022-10-19T00:48:10.461Z,12.77
2022-10-19T00:51:13.600Z,14.25
2022-10-19T00:54:17.782Z,13.62
2022-10-19T00:57:20.458Z,13.13
2022-10-19T01:00:23.449Z,14.15
2022-10-19T01:03:25.993Z,13.23
2022-10-19T01:06:29.661Z,12.70
2022-10-19T01:09:32.203Z,15.57
2022-10-19T01:12:58.542Z,15.77
2022-10-19T01:16:15.608Z,15.95
2022-10-19T01:19:46.487Z,13.37
2022-10-19T01:23:17.132Z,15.00
2022-10-19T01:26:44.740Z,14.60
2022-10-19T01:30:16.846Z,15.85
2022-10-19T01:33:31.820Z,14.07
2022-10-19T01:36:45.420Z,15.63
2022-10-19T01:39:55.468Z,13.82
2022-10-19T01:43:20.138Z,14.45
2022-10-19T01:46:44.053Z,14.48
2022-10-19T01:50:11.693Z,16.00
2022-10-19T01:53:18.277Z,11.27
2022-10-19T01:56:24.844Z,16.23
2022-10-19T01:59:27.985Z,12.88
2022-10-19T02:02:31.056Z,14.98
2022-10-19T02:05:34.773Z,14.50
2022-10-19T02:08:49.224Z,12.53
2022-10-19T02:11:57.271Z,12.05
2022-10-19T02:15:07.716Z,13.13
2022-10-19T02:18:13.691Z,14.05
2022-10-19T02:21:16.460Z,12.30
2022-10-19T02:24:19.368Z,12.60
2022-10-19T02:27:22.077Z,12.02
2022-10-19T02:30:25.450Z,11.82
2022-10-19T02:33:29.086Z,12.13
2022-10-19T02:36:32.222Z,9.75
2022-10-19T02:39:35.072Z,10.50
2022-10-19T02:42:48.401Z,9.25
2022-10-19T02:46:07.058Z,9.68
2022-10-19T02:49:10.753Z,9.10
2022-10-19T02:52:14.185Z,10.98
2022-10-19T02:55:17.105Z,9.73
2022-10-19T02:58:19.783Z,13.88
2022-10-19T03:01:22.618Z,9.15
2022-10-19T03:04:25.347Z,14.10
2022-10-19T03:07:28.512Z,14.60
2022-10-19T03:10:31.135Z,16.10
2022-10-19T03:13:34.093Z,13.57
2022-10-19T03:16:36.595Z,16.10
2022-10-19T03:19:39.957Z,16.00
2022-10-19T03:22:42.446Z,12.73
2022-10-19T03:25:45.323Z,12.73
2022-10-19T03:28:49.552Z,12.52
2022-10-19T03:31:52.525Z,11.82
2022-10-19T03:34:55.110Z,13.13
2022-10-19T03:37:57.935Z,12.80
2022-10-19T03:41:00.719Z,12.33
2022-10-19T03:44:04.052Z,12.48
2022-10-19T03:47:06.566Z,13.73
2022-10-19T03:50:13.156Z,14.52
2022-10-19T03:53:16.007Z,13.65
2022-10-19T03:56:20.612Z,14.13
2022-10-19T03:59:24.340Z,14.45
2022-10-19T04:02:27.263Z,16.17
2022-10-19T04:05:30.101Z,12.27
2022-10-19T04:08:33.044Z,13.25
2022-10-19T04:11:36.516Z,15.77
2022-10-19T04:14:52.862Z,11.35
2022-10-19T04:17:59.023Z,15.40
2022-10-19T04:21:05.791Z,14.20
2022-10-19T04:24:11.335Z,14.05
2022-10-19T04:27:13.827Z,14.17
2022-10-19T04:30:16.678Z,13.15
2022-10-19T04:33:19.489Z,12.43
2022-10-19T04:36:22.361Z,10.25
2022-10-19T04:39:24.974Z,11.15
2022-10-19T04:42:27.782Z,12.77
2022-10-19T04:45:30.372Z,12.85
2022-10-19T04:48:34.900Z,14.40
2022-10-19T04:51:37.704Z,13.88
2022-10-19T04:54:40.555Z,13.30
2022-10-19T04:57:43.404Z,13.10
2022-10-19T05:00:47.251Z,13.73
2022-10-19T05:03:54.001Z,13.55
2022-10-19T05:06:56.865Z,11.23
2022-10-19T05:09:59.543Z,16.62
2022-10-19T05:13:02.674Z,12.00
2022-10-19T05:16:06.654Z,11.90
2022-10-19T05:19:15.529Z,15.48
2022-10-19T05:22:18.335Z,11.65
2022-10-19T05:25:21.120Z,15.60
2022-10-19T05:28:23.759Z,14.67
2022-10-19T05:31:28.559Z,12.60
2022-10-19T05:34:31.107Z,12.57
2022-10-19T05:37:34.181Z,11.70
2022-10-19T05:40:37.309Z,14.45
2022-10-19T05:43:40.975Z,11.97
2022-10-19T05:46:44.016Z,11.85
2022-10-19T05:49:48.002Z,10.60
2022-10-19T05:52:50.578Z,13.07
2022-10-19T05:55:53.445Z,10.55
2022-10-19T05:58:57.325Z,12.00
2022-10-19T06:02:00.256Z,10.98
2022-10-19T06:05:03.273Z,11.23
2022-10-19T06:08:05.949Z,14.57
2022-10-19T06:11:20.569Z,10.38
2022-10-19T06:14:23.240Z,11.00
2022-10-19T06:17:28.867Z,14.52
2022-10-19T06:20:41.000Z,12.85
2022-10-19T06:23:44.216Z,10.82
2022-10-19T06:26:46.860Z,11.20
2022-10-19T06:29:49.762Z,14.00
2022-10-19T06:32:52.499Z,14.07
2022-10-19T06:35:55.953Z,11.55
2022-10-19T06:39:02.177Z,11.60
2022-10-19T06:42:05.160Z,13.50
2022-10-19T06:45:09.159Z,11.43
2022-10-19T06:48:12.094Z,13.30
2022-10-19T06:51:14.644Z,11.45
2022-10-19T06:54:17.563Z,12.93
2022-10-19T06:57:20.125Z,11.52
2022-10-19T07:00:23.238Z,10.47
2022-10-19T07:03:26.778Z,13.10
2022-10-19T07:06:29.792Z,11.40
2022-10-19T07:09:32.361Z,13.20
2022-10-19T07:12:35.217Z,11.32
2022-10-19T07:15:37.742Z,11.10
2022-10-19T07:18:41.538Z,10.27
2022-10-19T07:21:44.920Z,10.57
2022-10-19T07:24:47.850Z,12.85
2022-10-19T07:27:50.415Z,11.05
2022-10-19T07:30:53.847Z,12.33
2022-10-19T07:34:01.790Z,11.40
2022-10-19T07:37:04.723Z,10.82
2022-10-19T07:40:08.244Z,11.77
2022-10-19T07:43:11.137Z,11.80
2022-10-19T07:46:29.113Z,11.03
2022-10-19T07:49:32.020Z,11.43
2022-10-19T07:52:36.849Z,8.07
2022-10-19T07:55:40.472Z,10.05
2022-10-19T07:58:43.153Z,10.15
2022-10-19T08:01:47.690Z,9.43
2022-10-19T08:05:10.404Z,8.52
2022-10-19T08:08:13.882Z,11.00
2022-10-19T08:11:21.175Z,7.65
2022-10-19T08:14:23.856Z,7.82
2022-10-19T08:17:26.782Z,8.30
2022-10-19T08:20:29.840Z,9.68
2022-10-19T08:23:32.689Z,10.15
2022-10-19T08:26:38.278Z,7.55
2022-10-19T08:29:41.180Z,8.10
2022-10-19T08:32:43.715Z,7.13
2022-10-19T08:35:46.539Z,7.60
2022-10-19T08:38:50.328Z,8.73
2022-10-19T08:42:00.642Z,8.18
2022-10-19T08:45:24.129Z,8.90
2022-10-19T08:48:32.910Z,7.10
2022-10-19T08:51:38.522Z,8.68
2022-10-19T08:54:51.547Z,7.22
2022-10-19T08:58:03.724Z,6.28
2022-10-19T09:01:25.588Z,5.78
2022-10-19T09:04:34.343Z,7.37
2022-10-19T09:07:45.502Z,7.18
2022-10-19T09:10:51.126Z,6.95
2022-10-19T09:14:06.403Z,10.60
2022-10-19T09:17:17.178Z,6.35
2022-10-19T09:20:23.605Z,5.67
2022-10-19T09:23:35.691Z,6.62
2022-10-19T09:26:50.478Z,7.57
2022-10-19T09:29:58.133Z,11.73
2022-10-19T09:33:02.268Z,7.00
2022-10-19T09:36:06.281Z,6.93
2022-10-19T09:39:15.469Z,10.45
2022-10-19T09:42:24.000Z,6.00
2022-10-19T09:45:51.599Z,6.43
2022-10-19T09:48:54.231Z,7.22
2022-10-19T09:51:57.111Z,8.53
2022-10-19T09:55:07.784Z,9.48
2022-10-19T09:58:14.305Z,8.40
2022-10-19T10:01:41.812Z,10.50
2022-10-19T10:04:47.518Z,6.37
2022-10-19T10:07:54.937Z,7.43
2022-10-19T10:11:07.094Z,6.25
2022-10-19T10:14:25.576Z,7.18
2022-10-19T10:17:30.617Z,7.20
2022-10-19T10:20:34.916Z,7.55
2022-10-19T10:23:38.243Z,6.07
2022-10-19T10:26:46.480Z,6.18
2022-10-19T10:33:13.231Z,5.55
2022-10-19T10:36:24.077Z,8.45
2022-10-19T10:39:28.473Z,6.73
2022-10-19T10:42:37.641Z,6.55
2022-10-19T10:45:43.132Z,5.95
2022-10-19T10:48:53.787Z,7.00
2022-10-19T10:51:58.498Z,5.47
2022-10-19T10:55:05.113Z,6.03
2022-10-19T10:58:15.835Z,5.40
2022-10-19T11:01:23.883Z,8.68
2022-10-19T11:04:38.321Z,4.22
2022-10-19T11:07:45.327Z,4.57
2022-10-19T11:10:58.641Z,4.90
2022-10-19T11:14:22.778Z,5.95
2022-10-19T11:17:28.912Z,4.53
2022-10-19T11:20:32.899Z,4.82
2022-10-19T11:23:40.919Z,4.32
2022-10-19T11:26:52.819Z,4.90
2022-10-19T11:30:08.145Z,6.37
2022-10-19T11:33:40.727Z,4.90
2022-10-19T11:37:05.843Z,4.20
2022-10-19T11:40:45.821Z,4.57
2022-10-19T11:44:25.954Z,4.23
2022-10-19T11:47:51.362Z,3.70
2022-10-19T11:51:16.830Z,3.70
2022-10-19T11:54:42.604Z,5.68
2022-10-19T11:57:59.684Z,5.07
2022-10-19T12:01:32.671Z,4.30
2022-10-19T12:04:41.401Z,5.20
2022-10-19T12:08:07.495Z,3.17
2022-10-19T12:11:38.940Z,4.28
2022-10-19T12:14:44.124Z,3.33
2022-10-19T12:17:48.598Z,4.57
2022-10-19T12:20:53.051Z,6.30
2022-10-19T12:23:57.670Z,4.43
2022-10-19T12:27:01.209Z,5.00
2022-10-19T12:30:17.911Z,4.18
2022-10-19T12:33:41.060Z,3.70
2022-10-19T12:36:53.074Z,5.53
2022-10-19T12:40:01.048Z,6.10
2022-10-19T12:43:36.744Z,4.07
2022-10-19T12:46:49.619Z,4.05
2022-10-19T12:49:56.218Z,4.57
2022-10-19T12:52:58.754Z,3.30
2022-10-19T12:56:03.033Z,4.22
2022-10-19T12:59:05.700Z,4.43
2022-10-19T13:02:25.903Z,3.50
2022-10-19T13:05:30.704Z,4.40
2022-10-19T13:08:53.871Z,4.62
2022-10-19T13:12:17.800Z,5.05
2022-10-19T13:15:34.366Z,3.65
2022-10-19T13:18:59.198Z,3.85
2022-10-19T13:22:02.121Z,5.37
2022-10-19T13:25:17.163Z,3.42
2022-10-19T13:28:29.252Z,3.25
2022-10-19T13:31:33.223Z,7.43
2022-10-19T13:34:36.336Z,4.62
2022-10-19T13:37:39.432Z,3.93
2022-10-19T13:40:49.091Z,3.83
2022-10-19T13:44:12.095Z,4.90
2022-10-19T13:47:26.830Z,3.78
2022-10-19T13:50:39.392Z,4.95
2022-10-19T13:54:10.034Z,4.10
2022-10-19T13:57:27.732Z,5.72
2022-10-19T14:00:58.687Z,4.05
2022-10-19T14:04:21.318Z,4.20
2022-10-19T14:07:33.439Z,4.68
2022-10-19T14:11:00.249Z,4.10
2022-10-19T14:14:09.518Z,6.50
2022-10-19T14:17:24.688Z,3.87
2022-10-19T14:20:38.334Z,5.37
2022-10-19T14:23:41.265Z,6.30
2022-10-19T14:26:43.908Z,6.50
2022-10-19T14:29:51.539Z,5.97
2022-10-19T14:32:58.062Z,5.20
2022-10-19T14:36:08.218Z,6.93
2022-10-19T14:39:33.702Z,8.23
2022-10-19T14:42:43.079Z,9.73
2022-10-19T14:45:45.726Z,8.88
2022-10-19T14:48:50.450Z,5.50
2022-10-19T14:51:58.148Z,7.50
2022-10-19T14:55:06.631Z,6.78
2022-10-19T14:58:13.576Z,8.57
2022-10-19T15:01:19.608Z,7.15
2022-10-19T15:04:25.252Z,7.72
2022-10-19T15:07:38.408Z,11.30
2022-10-19T15:10:44.072Z,5.95
2022-10-19T15:13:49.421Z,10.87
2022-10-19T15:17:01.133Z,8.57
2022-10-19T15:20:27.629Z,5.25
2022-10-19T15:23:46.102Z,6.97
2022-10-19T15:27:06.589Z,8.38
2022-10-19T15:30:17.629Z,6.00
2022-10-19T15:33:20.516Z,9.65
2022-10-19T15:36:23.900Z,6.65
2022-10-19T15:39:38.764Z,9.85
2022-10-19T15:42:48.798Z,5.78
2022-10-19T15:46:04.850Z,8.13
2022-10-19T15:49:16.243Z,5.62
2022-10-19T15:52:24.903Z,6.78
2022-10-19T15:55:27.403Z,6.07
2022-10-19T15:58:30.417Z,8.50
2022-10-19T16:01:33.637Z,6.80
2022-10-19T16:04:36.462Z,10.95
2022-10-19T16:07:40.770Z,6.47
2022-10-19T16:10:47.151Z,4.75
2022-10-19T16:13:50.216Z,6.18
2022-10-19T16:16:53.291Z,10.20
2022-10-19T16:19:56.103Z,11.55
2022-10-19T16:22:59.007Z,14.75
2022-10-19T16:26:01.800Z,15.65
2022-10-19T16:29:04.696Z,8.27
2022-10-19T16:32:07.445Z,6.43
2022-10-19T16:35:11.588Z,8.60
2022-10-19T16:38:14.534Z,7.72
2022-10-19T16:41:17.651Z,7.90
2022-10-19T16:44:20.171Z,8.20
2022-10-19T16:47:23.062Z,9.73
2022-10-19T16:50:29.006Z,7.57
2022-10-19T16:53:32.883Z,7.70
2022-10-19T16:56:36.653Z,8.88
2022-10-19T16:59:39.661Z,8.85
2022-10-19T17:02:44.423Z,6.13
2022-10-19T17:05:49.221Z,7.28
2022-10-19T17:09:30.197Z,8.38
2022-10-19T17:12:16.696Z,7.10
2022-10-19T17:18:43.811Z,8.57
2022-10-19T17:21:47.003Z,8.07
2022-10-19T17:24:52.284Z,6.55
2022-10-19T17:27:55.154Z,5.80
2022-10-19T17:31:14.172Z,7.40
2022-10-19T17:34:17.952Z,6.03
2022-10-19T17:37:20.804Z,10.07
2022-10-19T17:40:33.096Z,7.93
2022-10-19T17:43:37.977Z,6.40
2022-10-19T17:46:42.803Z,7.90
2022-10-19T17:49:46.038Z,8.97
2022-10-19T17:52:49.714Z,8.15
2022-10-19T17:55:52.675Z,6.05
2022-10-19T17:58:57.347Z,6.70
2022-10-19T18:02:00.343Z,5.75
2022-10-19T18:05:04.657Z,10.60
2022-10-19T18:08:08.652Z,6.28
2022-10-19T18:11:14.338Z,9.43
2022-10-19T18:14:17.297Z,7.25
2022-10-19T18:17:24.054Z,6.45
2022-10-19T18:20:32.416Z,6.57
2022-10-19T18:23:36.522Z,5.70
2022-10-19T18:26:39.700Z,5.45
2022-10-19T18:29:43.249Z,5.22
2022-10-19T18:32:49.672Z,6.57
2022-10-19T18:35:57.991Z,4.53
2022-10-19T18:39:05.587Z,4.87
2022-10-19T18:42:12.804Z,7.15
2022-10-19T18:45:16.208Z,4.82
2022-10-19T18:48:19.665Z,7.15
2022-10-19T18:51:23.964Z,6.13
2022-10-19T18:54:28.126Z,5.40
2022-10-19T18:57:31.994Z,5.15
2022-10-19T19:00:36.664Z,4.87
2022-10-19T19:03:41.666Z,5.78
2022-10-19T19:06:44.591Z,5.27
2022-10-19T19:09:47.214Z,5.18
2022-10-19T19:12:51.315Z,4.60
2022-10-19T19:15:59.041Z,7.60
2022-10-19T19:19:03.474Z,7.47
2022-10-19T19:22:08.711Z,5.63
2022-10-19T19:25:12.162Z,5.72
2022-10-19T19:28:14.751Z,4.97
2022-10-19T19:31:19.210Z,5.18
2022-10-19T19:34:22.101Z,6.55
2022-10-19T19:37:25.338Z,6.43
2022-10-19T19:40:34.419Z,4.30
2022-10-19T19:43:38.360Z,6.78
2022-10-19T19:46:40.985Z,5.80
2022-10-19T19:49:44.184Z,6.43
2022-10-19T19:52:48.617Z,4.83
2022-10-19T19:55:53.782Z,6.62
2022-10-19T19:58:58.223Z,5.50
2022-10-19T20:02:01.967Z,6.65
2022-10-19T20:05:05.364Z,4.18
2022-10-19T20:08:08.893Z,5.73
2022-10-19T20:11:13.812Z,5.90
2022-10-19T20:14:18.796Z,8.60
2022-10-19T20:17:23.866Z,7.93
2022-10-19T20:20:29.368Z,5.32
2022-10-19T20:23:33.264Z,4.13
2022-10-19T20:26:36.144Z,7.50
2022-10-19T20:29:40.818Z,4.87
2022-10-19T20:32:44.715Z,4.78
2022-10-19T20:35:48.713Z,6.45
2022-10-19T20:38:57.448Z,4.10
2022-10-19T20:42:01.652Z,5.30
2022-10-19T20:45:04.967Z,7.03
2022-10-19T20:48:08.074Z,6.50
2022-10-19T20:51:13.927Z,5.00
2022-10-19T20:54:17.004Z,4.70
2022-10-19T20:57:19.822Z,6.72
2022-10-19T21:00:22.694Z,4.72
2022-10-19T21:03:25.365Z,5.55
2022-10-19T21:06:30.436Z,4.25
2022-10-19T21:09:33.065Z,7.80
2022-10-19T21:12:36.231Z,4.18
2022-10-19T21:15:39.247Z,5.15
2022-10-19T21:18:43.004Z,5.37
2022-10-19T21:21:50.178Z,5.40
2022-10-19T21:24:53.221Z,5.50
2022-10-19T21:27:56.013Z,6.07
2022-10-19T21:31:09.407Z,6.40
2022-10-19T21:34:18.442Z,5.20
2022-10-19T21:37:21.258Z,5.30
2022-10-19T21:40:25.781Z,5.37
2022-10-19T21:43:28.977Z,4.97
2022-10-19T21:46:31.747Z,7.43
2022-10-19T21:49:34.940Z,4.70
2022-10-19T21:52:37.402Z,4.93
2022-10-19T21:55:40.222Z,6.70
2022-10-19T21:58:46.647Z,5.35
2022-10-19T22:01:49.552Z,3.87
2022-10-19T22:04:52.489Z,5.07
2022-10-19T22:07:55.106Z,4.95
2022-10-19T22:10:59.228Z,5.57
2022-10-19T22:14:02.917Z,4.53
2022-10-19T22:17:05.649Z,4.25
2022-10-19T22:20:08.779Z,7.95
2022-10-19T22:23:11.653Z,5.10
2022-10-19T22:26:15.924Z,5.33
2022-10-19T22:29:19.370Z,4.78
2022-10-19T22:32:21.921Z,4.25
2022-10-19T22:35:24.660Z,5.07
2022-10-19T22:38:28.569Z,4.55
2022-10-19T22:41:31.414Z,7.23
2022-10-19T22:44:34.061Z,4.40
2022-10-19T22:47:36.930Z,3.33
2022-10-19T22:50:41.631Z,4.37
2022-10-19T22:53:44.534Z,5.18
2022-10-19T22:56:47.085Z,5.00
2022-10-19T22:59:50.358Z,4.15
2022-10-19T23:02:52.937Z,4.78
2022-10-19T23:05:55.827Z,4.40
2022-10-19T23:08:58.380Z,4.47
2022-10-19T23:12:01.629Z,5.03
2022-10-19T23:15:04.359Z,4.35
2022-10-19T23:18:07.595Z,5.45
2022-10-19T23:21:12.575Z,6.12
2022-10-19T23:24:15.406Z,5.72
2022-10-19T23:27:17.934Z,4.70
2022-10-19T23:30:26.106Z,5.05
2022-10-19T23:33:28.668Z,5.85
2022-10-19T23:36:31.451Z,5.25
2022-10-19T23:39:34.037Z,3.80
2022-10-19T23:42:36.920Z,6.30
2022-10-19T23:45:39.698Z,5.20
2022-10-19T23:48:42.659Z,4.95
2022-10-19T23:51:45.250Z,4.65
2022-10-19T23:54:48.214Z,6.55
2022-10-19T23:57:50.829Z,5.33
